sensor_id;sensor_type;location;lat;lon;timestamp;P1;durP1;ratioP1;P2;durP2;ratioP2
37097;SDS011;63608;49.572;12.348;2023-05-24T00:00:16;7.73;;;5.60;;
37097;SDS011;63608;49.572;12.348;2023-05-24T00:02:21;7.73;;;5.47;;
37097;SDS011;63608;49.572;12.348;2023-05-24T00:04:26;7.90;;;5.50;;
37097;SDS011;63608;49.572;12.348;2023-05-24T00:06:31;8.67;;;5.80;;
37097;SDS011;63608;49.572;12.348;2023-05-24T00:08:37;5.83;;;5.13;;
37097;SDS011;63608;49.572;12.348;2023-05-24T00:10:41;7.63;;;5.90;;
37097;SDS011;63608;49.572;12.348;2023-05-24T00:12:44;10.60;;;5.70;;
37097;SDS011;63608;49.572;12.348;2023-05-24T00:14:51;6.27;;;5.67;;
37097;SDS011;63608;49.572;12.348;2023-05-24T00:16:55;7.10;;;5.83;;
37097;SDS011;63608;49.572;12.348;2023-05-24T00:18:58;10.03;;;6.23;;
37097;SDS011;63608;49.572;12.348;2023-05-24T00:21:01;10.50;;;5.80;;
37097;SDS011;63608;49.572;12.348;2023-05-24T00:23:06;9.50;;;6.73;;
37097;SDS011;63608;49.572;12.348;2023-05-24T00:25:10;11.83;;;6.43;;
37097;SDS011;63608;49.572;12.348;2023-05-24T00:27:13;9.40;;;6.10;;
37097;SDS011;63608;49.572;12.348;2023-05-24T00:29:30;11.33;;;6.30;;
37097;SDS011;63608;49.572;12.348;2023-05-24T00:31:33;8.00;;;6.00;;
37097;SDS011;63608;49.572;12.348;2023-05-24T00:33:36;11.87;;;6.47;;
37097;SDS011;63608;49.572;12.348;2023-05-24T00:35:38;7.70;;;5.80;;
37097;SDS011;63608;49.572;12.348;2023-05-24T00:37:41;8.70;;;6.30;;
37097;SDS011;63608;49.572;12.348;2023-05-24T00:39:46;9.63;;;6.30;;
37097;SDS011;63608;49.572;12.348;2023-05-24T00:41:49;10.70;;;6.30;;
37097;SDS011;63608;49.572;12.348;2023-05-24T00:43:52;10.77;;;6.47;;
37097;SDS011;63608;49.572;12.348;2023-05-24T00:45:59;8.47;;;6.40;;
37097;SDS011;63608;49.572;12.348;2023-05-24T00:48:16;8.90;;;6.93;;
37097;SDS011;63608;49.572;12.348;2023-05-24T00:50:18;9.50;;;6.10;;
37097;SDS011;63608;49.572;12.348;2023-05-24T00:52:22;11.40;;;6.73;;
37097;SDS011;63608;49.572;12.348;2023-05-24T00:54:25;11.43;;;6.10;;
37097;SDS011;63608;49.572;12.348;2023-05-24T00:56:30;8.30;;;6.17;;
37097;SDS011;63608;49.572;12.348;2023-05-24T00:58:32;8.53;;;6.50;;
37097;SDS011;63608;49.572;12.348;2023-05-24T01:00:35;9.83;;;7.00;;
37097;SDS011;63608;49.572;12.348;2023-05-24T01:02:39;9.97;;;6.07;;
37097;SDS011;63608;49.572;12.348;2023-05-24T01:04:42;9.40;;;6.00;;
37097;SDS011;63608;49.572;12.348;2023-05-24T01:06:52;11.17;;;6.50;;
37097;SDS011;63608;49.572;12.348;2023-05-24T01:09:08;10.50;;;6.10;;
37097;SDS011;63608;49.572;12.348;2023-05-24T01:11:22;8.07;;;6.13;;
37097;SDS011;63608;49.572;12.348;2023-05-24T01:13:30;7.87;;;6.23;;
37097;SDS011;63608;49.572;12.348;2023-05-24T01:15:42;9.10;;;6.40;;
37097;SDS011;63608;49.572;12.348;2023-05-24T01:17:50;7.00;;;5.50;;
37097;SDS011;63608;49.572;12.348;2023-05-24T01:19:57;9.30;;;6.10;;
37097;SDS011;63608;49.572;12.348;2023-05-24T01:22:07;11.50;;;6.00;;
37097;SDS011;63608;49.572;12.348;2023-05-24T01:24:20;8.63;;;6.40;;
37097;SDS011;63608;49.572;12.348;2023-05-24T01:26:31;8.63;;;5.67;;
37097;SDS011;63608;49.572;12.348;2023-05-24T01:28:42;7.60;;;6.30;;
37097;SDS011;63608;49.572;12.348;2023-05-24T01:30:45;8.40;;;6.07;;
37097;SDS011;63608;49.572;12.348;2023-05-24T01:32:48;8.33;;;6.13;;
37097;SDS011;63608;49.572;12.348;2023-05-24T01:34:51;7.77;;;6.20;;
37097;SDS011;63608;49.572;12.348;2023-05-24T01:36:58;9.90;;;6.23;;
37097;SDS011;63608;49.572;12.348;2023-05-24T01:39:01;13.60;;;6.50;;
37097;SDS011;63608;49.572;12.348;2023-05-24T01:41:17;8.70;;;6.30;;
37097;SDS011;63608;49.572;12.348;2023-05-24T01:43:28;12.20;;;6.80;;
37097;SDS011;63608;49.572;12.348;2023-05-24T01:45:38;10.37;;;6.73;;
37097;SDS011;63608;49.572;12.348;2023-05-24T01:47:46;12.80;;;7.43;;
37097;SDS011;63608;49.572;12.348;2023-05-24T01:49:58;10.50;;;6.80;;
37097;SDS011;63608;49.572;12.348;2023-05-24T01:52:04;12.93;;;6.70;;
37097;SDS011;63608;49.572;12.348;2023-05-24T01:54:11;11.37;;;6.53;;
37097;SDS011;63608;49.572;12.348;2023-05-24T01:56:15;15.20;;;6.93;;
37097;SDS011;63608;49.572;12.348;2023-05-24T01:58:20;10.80;;;7.03;;
37097;SDS011;63608;49.572;12.348;2023-05-24T02:00:29;11.20;;;7.60;;
37097;SDS011;63608;49.572;12.348;2023-05-24T02:02:34;11.03;;;6.80;;
37097;SDS011;63608;49.572;12.348;2023-05-24T02:04:38;10.70;;;7.70;;
37097;SDS011;63608;49.572;12.348;2023-05-24T02:06:42;11.60;;;7.10;;
37097;SDS011;63608;49.572;12.348;2023-05-24T02:08:45;12.70;;;7.27;;
37097;SDS011;63608;49.572;12.348;2023-05-24T02:10:48;17.50;;;8.07;;
37097;SDS011;63608;49.572;12.348;2023-05-24T02:12:52;11.97;;;7.50;;
37097;SDS011;63608;49.572;12.348;2023-05-24T02:14:55;10.53;;;7.37;;
37097;SDS011;63608;49.572;12.348;2023-05-24T02:16:58;11.63;;;7.70;;
37097;SDS011;63608;49.572;12.348;2023-05-24T02:19:03;11.67;;;7.60;;
37097;SDS011;63608;49.572;12.348;2023-05-24T02:21:06;11.47;;;7.00;;
37097;SDS011;63608;49.572;12.348;2023-05-24T02:23:08;13.47;;;7.90;;
37097;SDS011;63608;49.572;12.348;2023-05-24T02:25:11;14.03;;;7.73;;
37097;SDS011;63608;49.572;12.348;2023-05-24T02:27:14;14.83;;;7.60;;
37097;SDS011;63608;49.572;12.348;2023-05-24T02:29:16;18.70;;;8.50;;
37097;SDS011;63608;49.572;12.348;2023-05-24T02:31:21;10.90;;;7.00;;
37097;SDS011;63608;49.572;12.348;2023-05-24T02:33:25;13.47;;;8.00;;
37097;SDS011;63608;49.572;12.348;2023-05-24T02:35:31;14.50;;;7.23;;
37097;SDS011;63608;49.572;12.348;2023-05-24T02:37:34;18.10;;;7.33;;
37097;SDS011;63608;49.572;12.348;2023-05-24T02:39:36;17.93;;;7.07;;
37097;SDS011;63608;49.572;12.348;2023-05-24T02:41:39;14.40;;;7.37;;
37097;SDS011;63608;49.572;12.348;2023-05-24T02:43:44;12.03;;;7.33;;
37097;SDS011;63608;49.572;12.348;2023-05-24T02:45:47;12.57;;;7.23;;
37097;SDS011;63608;49.572;12.348;2023-05-24T02:47:50;14.63;;;7.27;;
37097;SDS011;63608;49.572;12.348;2023-05-24T02:49:53;15.43;;;6.90;;
37097;SDS011;63608;49.572;12.348;2023-05-24T02:51:58;17.63;;;7.20;;
37097;SDS011;63608;49.572;12.348;2023-05-24T02:54:01;13.33;;;6.80;;
37097;SDS011;63608;49.572;12.348;2023-05-24T02:56:04;13.37;;;6.43;;
37097;SDS011;63608;49.572;12.348;2023-05-24T02:58:07;11.67;;;6.77;;
37097;SDS011;63608;49.572;12.348;2023-05-24T03:00:12;11.03;;;6.10;;
37097;SDS011;63608;49.572;12.348;2023-05-24T03:02:15;14.23;;;6.20;;
37097;SDS011;63608;49.572;12.348;2023-05-24T03:04:18;12.00;;;5.30;;
37097;SDS011;63608;49.572;12.348;2023-05-24T03:06:21;11.43;;;5.23;;
37097;SDS011;63608;49.572;12.348;2023-05-24T03:08:25;11.50;;;5.33;;
37097;SDS011;63608;49.572;12.348;2023-05-24T03:10:28;11.20;;;5.00;;
37097;SDS011;63608;49.572;12.348;2023-05-24T03:12:31;8.93;;;5.20;;
37097;SDS011;63608;49.572;12.348;2023-05-24T03:14:38;13.90;;;5.77;;
37097;SDS011;63608;49.572;12.348;2023-05-24T03:16:41;9.00;;;5.43;;
37097;SDS011;63608;49.572;12.348;2023-05-24T03:18:44;11.90;;;5.33;;
37097;SDS011;63608;49.572;12.348;2023-05-24T03:20:50;8.80;;;4.90;;
37097;SDS011;63608;49.572;12.348;2023-05-24T03:22:53;12.60;;;5.30;;
37097;SDS011;63608;49.572;12.348;2023-05-24T03:24:58;7.80;;;5.00;;
37097;SDS011;63608;49.572;12.348;2023-05-24T03:27:01;12.97;;;5.00;;
37097;SDS011;63608;49.572;12.348;2023-05-24T03:29:04;9.57;;;4.73;;
37097;SDS011;63608;49.572;12.348;2023-05-24T03:31:07;14.77;;;5.07;;
37097;SDS011;63608;49.572;12.348;2023-05-24T03:33:12;9.60;;;4.87;;
37097;SDS011;63608;49.572;12.348;2023-05-24T03:35:14;8.47;;;4.80;;
37097;SDS011;63608;49.572;12.348;2023-05-24T03:37:21;7.87;;;4.43;;
37097;SDS011;63608;49.572;12.348;2023-05-24T03:39:23;8.40;;;4.73;;
37097;SDS011;63608;49.572;12.348;2023-05-24T03:41:28;8.67;;;4.60;;
37097;SDS011;63608;49.572;12.348;2023-05-24T03:43:35;13.10;;;4.80;;
37097;SDS011;63608;49.572;12.348;2023-05-24T03:45:38;10.33;;;4.87;;
37097;SDS011;63608;49.572;12.348;2023-05-24T03:47:42;9.00;;;4.43;;
37097;SDS011;63608;49.572;12.348;2023-05-24T03:49:47;8.40;;;4.40;;
37097;SDS011;63608;49.572;12.348;2023-05-24T03:51:51;8.60;;;4.10;;
37097;SDS011;63608;49.572;12.348;2023-05-24T03:53:54;11.40;;;4.60;;
37097;SDS011;63608;49.572;12.348;2023-05-24T03:55:57;7.37;;;4.30;;
37097;SDS011;63608;49.572;12.348;2023-05-24T03:58:03;12.00;;;4.50;;
37097;SDS011;63608;49.572;12.348;2023-05-24T04:00:06;9.03;;;4.03;;
37097;SDS011;63608;49.572;12.348;2023-05-24T04:02:10;8.60;;;4.10;;
37097;SDS011;63608;49.572;12.348;2023-05-24T04:04:13;12.03;;;4.20;;
37097;SDS011;63608;49.572;12.348;2023-05-24T04:06:17;7.63;;;4.40;;
37097;SDS011;63608;49.572;12.348;2023-05-24T04:08:20;14.53;;;4.67;;
37097;SDS011;63608;49.572;12.348;2023-05-24T04:10:23;12.83;;;5.87;;
37097;SDS011;63608;49.572;12.348;2023-05-24T04:12:29;7.73;;;4.60;;
37097;SDS011;63608;49.572;12.348;2023-05-24T04:14:35;6.60;;;4.13;;
37097;SDS011;63608;49.572;12.348;2023-05-24T04:16:38;9.67;;;4.00;;
37097;SDS011;63608;49.572;12.348;2023-05-24T04:18:45;10.60;;;4.63;;
37097;SDS011;63608;49.572;12.348;2023-05-24T04:20:47;8.90;;;4.20;;
37097;SDS011;63608;49.572;12.348;2023-05-24T04:22:51;9.17;;;4.57;;
37097;SDS011;63608;49.572;12.348;2023-05-24T04:24:55;8.57;;;4.33;;
37097;SDS011;63608;49.572;12.348;2023-05-24T04:26:57;8.70;;;5.00;;
37097;SDS011;63608;49.572;12.348;2023-05-24T04:29:04;7.13;;;4.50;;
37097;SDS011;63608;49.572;12.348;2023-05-24T04:31:11;10.33;;;4.60;;
37097;SDS011;63608;49.572;12.348;2023-05-24T04:33:17;10.50;;;4.60;;
37097;SDS011;63608;49.572;12.348;2023-05-24T04:35:20;9.27;;;4.20;;
37097;SDS011;63608;49.572;12.348;2023-05-24T04:37:23;11.00;;;5.20;;
37097;SDS011;63608;49.572;12.348;2023-05-24T04:39:25;10.77;;;4.80;;
37097;SDS011;63608;49.572;12.348;2023-05-24T04:41:29;9.67;;;4.50;;
37097;SDS011;63608;49.572;12.348;2023-05-24T04:43:34;8.20;;;3.90;;
37097;SDS011;63608;49.572;12.348;2023-05-24T04:45:38;10.40;;;4.70;;
37097;SDS011;63608;49.572;12.348;2023-05-24T04:47:44;11.17;;;4.50;;
37097;SDS011;63608;49.572;12.348;2023-05-24T04:49:48;9.27;;;4.83;;
37097;SDS011;63608;49.572;12.348;2023-05-24T04:51:51;9.00;;;3.67;;
37097;SDS011;63608;49.572;12.348;2023-05-24T04:53:55;8.30;;;4.20;;
37097;SDS011;63608;49.572;12.348;2023-05-24T04:55:58;8.53;;;4.33;;
37097;SDS011;63608;49.572;12.348;2023-05-24T04:58:00;8.73;;;4.20;;
37097;SDS011;63608;49.572;12.348;2023-05-24T05:00:04;13.20;;;4.37;;
37097;SDS011;63608;49.572;12.348;2023-05-24T05:02:09;15.00;;;4.70;;
37097;SDS011;63608;49.572;12.348;2023-05-24T05:04:16;11.43;;;4.37;;
37097;SDS011;63608;49.572;12.348;2023-05-24T05:06:19;8.93;;;4.43;;
37097;SDS011;63608;49.572;12.348;2023-05-24T05:08:23;10.73;;;4.27;;
37097;SDS011;63608;49.572;12.348;2023-05-24T05:10:26;12.53;;;4.30;;
37097;SDS011;63608;49.572;12.348;2023-05-24T05:12:29;7.73;;;4.10;;
37097;SDS011;63608;49.572;12.348;2023-05-24T05:14:35;8.73;;;4.20;;
37097;SDS011;63608;49.572;12.348;2023-05-24T05:16:38;7.70;;;4.17;;
37097;SDS011;63608;49.572;12.348;2023-05-24T05:18:44;13.20;;;4.40;;
37097;SDS011;63608;49.572;12.348;2023-05-24T05:20:49;14.30;;;4.43;;
37097;SDS011;63608;49.572;12.348;2023-05-24T05:22:53;8.20;;;4.13;;
37097;SDS011;63608;49.572;12.348;2023-05-24T05:25:00;13.97;;;5.23;;
37097;SDS011;63608;49.572;12.348;2023-05-24T05:27:03;11.63;;;4.33;;
37097;SDS011;63608;49.572;12.348;2023-05-24T05:29:06;8.13;;;3.80;;
37097;SDS011;63608;49.572;12.348;2023-05-24T05:31:09;8.23;;;4.43;;
37097;SDS011;63608;49.572;12.348;2023-05-24T05:33:12;10.60;;;4.57;;
37097;SDS011;63608;49.572;12.348;2023-05-24T05:35:15;9.70;;;4.13;;
37097;SDS011;63608;49.572;12.348;2023-05-24T05:37:20;9.30;;;4.30;;
37097;SDS011;63608;49.572;12.348;2023-05-24T05:39:23;7.93;;;3.90;;
37097;SDS011;63608;49.572;12.348;2023-05-24T05:41:26;9.20;;;4.23;;
37097;SDS011;63608;49.572;12.348;2023-05-24T05:43:29;10.43;;;4.17;;
37097;SDS011;63608;49.572;12.348;2023-05-24T05:45:32;10.87;;;4.20;;
37097;SDS011;63608;49.572;12.348;2023-05-24T05:47:35;9.80;;;4.93;;
37097;SDS011;63608;49.572;12.348;2023-05-24T05:49:38;10.00;;;4.43;;
37097;SDS011;63608;49.572;12.348;2023-05-24T05:51:41;7.50;;;4.30;;
37097;SDS011;63608;49.572;12.348;2023-05-24T05:53:45;9.37;;;4.87;;
37097;SDS011;63608;49.572;12.348;2023-05-24T05:55:48;10.83;;;4.33;;
37097;SDS011;63608;49.572;12.348;2023-05-24T05:57:53;7.80;;;4.60;;
37097;SDS011;63608;49.572;12.348;2023-05-24T05:59:56;12.13;;;4.67;;
37097;SDS011;63608;49.572;12.348;2023-05-24T06:01:58;7.77;;;4.30;;
37097;SDS011;63608;49.572;12.348;2023-05-24T06:04:01;8.53;;;4.00;;
37097;SDS011;63608;49.572;12.348;2023-05-24T06:06:04;7.60;;;4.20;;
37097;SDS011;63608;49.572;12.348;2023-05-24T06:08:06;14.13;;;4.97;;
37097;SDS011;63608;49.572;12.348;2023-05-24T06:10:12;14.80;;;4.43;;
37097;SDS011;63608;49.572;12.348;2023-05-24T06:12:17;8.53;;;4.30;;
37097;SDS011;63608;49.572;12.348;2023-05-24T06:14:23;11.03;;;4.70;;
37097;SDS011;63608;49.572;12.348;2023-05-24T06:16:25;7.37;;;4.47;;
37097;SDS011;63608;49.572;12.348;2023-05-24T06:18:28;12.77;;;4.47;;
37097;SDS011;63608;49.572;12.348;2023-05-24T06:20:31;6.60;;;4.47;;
37097;SDS011;63608;49.572;12.348;2023-05-24T06:22:33;13.73;;;5.10;;
37097;SDS011;63608;49.572;12.348;2023-05-24T06:24:37;11.93;;;4.83;;
37097;SDS011;63608;49.572;12.348;2023-05-24T06:26:44;8.63;;;4.80;;
37097;SDS011;63608;49.572;12.348;2023-05-24T06:28:48;9.50;;;5.30;;
37097;SDS011;63608;49.572;12.348;2023-05-24T06:30:56;9.33;;;5.10;;
37097;SDS011;63608;49.572;12.348;2023-05-24T06:32:59;8.90;;;4.13;;
37097;SDS011;63608;49.572;12.348;2023-05-24T06:35:01;9.90;;;4.60;;
37097;SDS011;63608;49.572;12.348;2023-05-24T06:37:05;8.07;;;5.30;;
37097;SDS011;63608;49.572;12.348;2023-05-24T06:39:14;11.23;;;4.57;;
37097;SDS011;63608;49.572;12.348;2023-05-24T06:41:16;12.23;;;4.57;;
37097;SDS011;63608;49.572;12.348;2023-05-24T06:43:22;9.00;;;4.80;;
37097;SDS011;63608;49.572;12.348;2023-05-24T06:45:24;15.13;;;4.33;;
37097;SDS011;63608;49.572;12.348;2023-05-24T06:47:27;7.90;;;4.40;;
37097;SDS011;63608;49.572;12.348;2023-05-24T06:49:31;11.47;;;4.60;;
37097;SDS011;63608;49.572;12.348;2023-05-24T06:51:33;9.50;;;4.00;;
37097;SDS011;63608;49.572;12.348;2023-05-24T06:53:37;7.80;;;4.20;;
37097;SDS011;63608;49.572;12.348;2023-05-24T06:55:42;9.43;;;3.80;;
37097;SDS011;63608;49.572;12.348;2023-05-24T06:57:45;9.00;;;4.57;;
37097;SDS011;63608;49.572;12.348;2023-05-24T06:59:49;8.90;;;4.40;;
37097;SDS011;63608;49.572;12.348;2023-05-24T07:01:52;6.07;;;4.27;;
37097;SDS011;63608;49.572;12.348;2023-05-24T07:03:56;9.43;;;4.27;;
37097;SDS011;63608;49.572;12.348;2023-05-24T07:06:00;9.33;;;4.43;;
37097;SDS011;63608;49.572;12.348;2023-05-24T07:08:03;8.83;;;4.20;;
37097;SDS011;63608;49.572;12.348;2023-05-24T07:10:06;8.80;;;4.03;;
37097;SDS011;63608;49.572;12.348;2023-05-24T07:12:10;12.40;;;4.67;;
37097;SDS011;63608;49.572;12.348;2023-05-24T07:14:12;9.33;;;4.43;;
37097;SDS011;63608;49.572;12.348;2023-05-24T07:16:18;11.20;;;4.10;;
37097;SDS011;63608;49.572;12.348;2023-05-24T07:18:21;6.60;;;4.10;;
37097;SDS011;63608;49.572;12.348;2023-05-24T07:20:25;7.87;;;4.37;;
37097;SDS011;63608;49.572;12.348;2023-05-24T07:22:28;6.67;;;3.70;;
37097;SDS011;63608;49.572;12.348;2023-05-24T07:24:32;10.47;;;3.90;;
37097;SDS011;63608;49.572;12.348;2023-05-24T07:26:37;10.60;;;4.30;;
37097;SDS011;63608;49.572;12.348;2023-05-24T07:28:40;9.40;;;4.10;;
37097;SDS011;63608;49.572;12.348;2023-05-24T07:30:47;8.90;;;4.00;;
37097;SDS011;63608;49.572;12.348;2023-05-24T07:32:53;7.63;;;3.73;;
37097;SDS011;63608;49.572;12.348;2023-05-24T07:34:55;9.03;;;3.57;;
37097;SDS011;63608;49.572;12.348;2023-05-24T07:36:59;7.57;;;4.10;;
37097;SDS011;63608;49.572;12.348;2023-05-24T07:39:02;7.77;;;3.40;;
37097;SDS011;63608;49.572;12.348;2023-05-24T07:41:06;9.07;;;4.03;;
37097;SDS011;63608;49.572;12.348;2023-05-24T07:43:11;8.23;;;4.33;;
37097;SDS011;63608;49.572;12.348;2023-05-24T07:45:19;8.23;;;4.23;;
37097;SDS011;63608;49.572;12.348;2023-05-24T07:47:21;4.70;;;4.10;;
37097;SDS011;63608;49.572;12.348;2023-05-24T07:49:25;7.47;;;4.40;;
37097;SDS011;63608;49.572;12.348;2023-05-24T07:51:29;8.13;;;4.23;;
37097;SDS011;63608;49.572;12.348;2023-05-24T07:53:33;13.70;;;4.37;;
37097;SDS011;63608;49.572;12.348;2023-05-24T07:55:36;7.97;;;4.00;;
37097;SDS011;63608;49.572;12.348;2023-05-24T07:57:40;10.70;;;4.57;;
37097;SDS011;63608;49.572;12.348;2023-05-24T07:59:43;10.23;;;3.90;;
37097;SDS011;63608;49.572;12.348;2023-05-24T08:01:47;11.07;;;3.97;;
37097;SDS011;63608;49.572;12.348;2023-05-24T08:03:52;9.47;;;4.67;;
37097;SDS011;63608;49.572;12.348;2023-05-24T08:06:00;9.13;;;4.27;;
37097;SDS011;63608;49.572;12.348;2023-05-24T08:08:04;9.53;;;4.27;;
37097;SDS011;63608;49.572;12.348;2023-05-24T08:10:07;11.40;;;4.40;;
37097;SDS011;63608;49.572;12.348;2023-05-24T08:12:11;8.27;;;4.83;;
37097;SDS011;63608;49.572;12.348;2023-05-24T08:14:15;7.23;;;4.57;;
37097;SDS011;63608;49.572;12.348;2023-05-24T08:16:17;6.47;;;4.70;;
37097;SDS011;63608;49.572;12.348;2023-05-24T08:18:25;10.67;;;4.80;;
37097;SDS011;63608;49.572;12.348;2023-05-24T08:20:30;86.07;;;8.97;;
37097;SDS011;63608;49.572;12.348;2023-05-24T08:22:37;11.27;;;4.43;;
37097;SDS011;63608;49.572;12.348;2023-05-24T08:24:40;11.40;;;4.20;;
37097;SDS011;63608;49.572;12.348;2023-05-24T08:26:46;9.50;;;4.43;;
37097;SDS011;63608;49.572;12.348;2023-05-24T08:28:51;8.40;;;4.73;;
37097;SDS011;63608;49.572;12.348;2023-05-24T08:30:54;8.23;;;4.50;;
37097;SDS011;63608;49.572;12.348;2023-05-24T08:32:58;11.90;;;5.30;;
37097;SDS011;63608;49.572;12.348;2023-05-24T08:35:01;7.60;;;4.30;;
37097;SDS011;63608;49.572;12.348;2023-05-24T08:37:07;9.77;;;5.00;;
37097;SDS011;63608;49.572;12.348;2023-05-24T08:39:12;12.70;;;4.90;;
37097;SDS011;63608;49.572;12.348;2023-05-24T08:41:19;8.17;;;4.40;;
37097;SDS011;63608;49.572;12.348;2023-05-24T08:43:21;10.80;;;4.73;;
37097;SDS011;63608;49.572;12.348;2023-05-24T08:45:25;7.30;;;4.50;;
37097;SDS011;63608;49.572;12.348;2023-05-24T08:47:27;11.87;;;5.03;;
37097;SDS011;63608;49.572;12.348;2023-05-24T08:49:30;13.47;;;4.57;;
37097;SDS011;63608;49.572;12.348;2023-05-24T08:51:38;10.40;;;4.97;;
37097;SDS011;63608;49.572;12.348;2023-05-24T08:53:41;9.73;;;5.00;;
37097;SDS011;63608;49.572;12.348;2023-05-24T08:55:49;7.23;;;5.13;;
37097;SDS011;63608;49.572;12.348;2023-05-24T08:57:54;13.20;;;4.70;;
37097;SDS011;63608;49.572;12.348;2023-05-24T08:59:57;11.20;;;4.37;;
37097;SDS011;63608;49.572;12.348;2023-05-24T09:02:01;9.60;;;4.50;;
37097;SDS011;63608;49.572;12.348;2023-05-24T09:04:08;8.97;;;5.10;;
37097;SDS011;63608;49.572;12.348;2023-05-24T09:06:16;10.23;;;5.17;;
37097;SDS011;63608;49.572;12.348;2023-05-24T09:08:20;10.33;;;5.33;;
37097;SDS011;63608;49.572;12.348;2023-05-24T09:10:22;9.17;;;5.03;;
37097;SDS011;63608;49.572;12.348;2023-05-24T09:12:29;12.70;;;5.50;;
37097;SDS011;63608;49.572;12.348;2023-05-24T09:14:33;9.33;;;4.87;;
37097;SDS011;63608;49.572;12.348;2023-05-24T09:16:36;10.73;;;5.20;;
37097;SDS011;63608;49.572;12.348;2023-05-24T09:18:38;10.43;;;5.17;;
37097;SDS011;63608;49.572;12.348;2023-05-24T09:20:41;8.43;;;5.17;;
37097;SDS011;63608;49.572;12.348;2023-05-24T09:22:46;6.70;;;5.10;;
37097;SDS011;63608;49.572;12.348;2023-05-24T09:24:52;8.17;;;5.10;;
37097;SDS011;63608;49.572;12.348;2023-05-24T09:26:55;12.80;;;5.60;;
37097;SDS011;63608;49.572;12.348;2023-05-24T09:29:09;11.47;;;5.10;;
37097;SDS011;63608;49.572;12.348;2023-05-24T09:31:12;11.20;;;5.40;;
37097;SDS011;63608;49.572;12.348;2023-05-24T09:33:15;6.10;;;4.70;;
37097;SDS011;63608;49.572;12.348;2023-05-24T09:35:18;8.93;;;5.30;;
37097;SDS011;63608;49.572;12.348;2023-05-24T09:37:21;11.33;;;5.33;;
37097;SDS011;63608;49.572;12.348;2023-05-24T09:39:26;9.10;;;5.10;;
37097;SDS011;63608;49.572;12.348;2023-05-24T09:41:28;9.40;;;5.43;;
37097;SDS011;63608;49.572;12.348;2023-05-24T09:43:42;7.00;;;4.43;;
37097;SDS011;63608;49.572;12.348;2023-05-24T09:45:49;6.33;;;4.63;;
37097;SDS011;63608;49.572;12.348;2023-05-24T09:47:57;8.23;;;5.17;;
37097;SDS011;63608;49.572;12.348;2023-05-24T09:50:00;8.40;;;5.13;;
37097;SDS011;63608;49.572;12.348;2023-05-24T09:52:04;9.17;;;4.90;;
37097;SDS011;63608;49.572;12.348;2023-05-24T09:54:07;12.30;;;4.97;;
37097;SDS011;63608;49.572;12.348;2023-05-24T09:56:10;8.50;;;5.40;;
37097;SDS011;63608;49.572;12.348;2023-05-24T09:58:12;11.43;;;5.10;;
37097;SDS011;63608;49.572;12.348;2023-05-24T10:00:20;9.20;;;5.27;;
37097;SDS011;63608;49.572;12.348;2023-05-24T10:02:25;9.97;;;5.17;;
37097;SDS011;63608;49.572;12.348;2023-05-24T10:04:31;9.53;;;5.40;;
37097;SDS011;63608;49.572;12.348;2023-05-24T10:06:35;8.97;;;5.10;;
37097;SDS011;63608;49.572;12.348;2023-05-24T10:08:37;9.10;;;4.80;;
37097;SDS011;63608;49.572;12.348;2023-05-24T10:10:41;6.73;;;4.80;;
37097;SDS011;63608;49.572;12.348;2023-05-24T10:12:44;7.63;;;4.50;;
37097;SDS011;63608;49.572;12.348;2023-05-24T10:14:47;12.50;;;4.97;;
37097;SDS011;63608;49.572;12.348;2023-05-24T10:16:50;6.50;;;4.60;;
37097;SDS011;63608;49.572;12.348;2023-05-24T10:18:59;12.10;;;5.00;;
37097;SDS011;63608;49.572;12.348;2023-05-24T10:21:01;6.37;;;4.33;;
37097;SDS011;63608;49.572;12.348;2023-05-24T10:23:08;7.77;;;4.57;;
37097;SDS011;63608;49.572;12.348;2023-05-24T10:25:12;8.33;;;4.70;;
37097;SDS011;63608;49.572;12.348;2023-05-24T10:27:19;8.70;;;4.60;;
37097;SDS011;63608;49.572;12.348;2023-05-24T10:29:26;10.07;;;5.00;;
37097;SDS011;63608;49.572;12.348;2023-05-24T10:31:35;10.03;;;4.80;;
37097;SDS011;63608;49.572;12.348;2023-05-24T10:33:38;9.33;;;5.00;;
37097;SDS011;63608;49.572;12.348;2023-05-24T10:35:43;12.33;;;5.10;;
37097;SDS011;63608;49.572;12.348;2023-05-24T10:37:46;12.40;;;4.80;;
37097;SDS011;63608;49.572;12.348;2023-05-24T10:39:49;9.20;;;4.27;;
37097;SDS011;63608;49.572;12.348;2023-05-24T10:41:54;10.20;;;4.73;;
37097;SDS011;63608;49.572;12.348;2023-05-24T10:43:58;10.37;;;4.83;;
37097;SDS011;63608;49.572;12.348;2023-05-24T10:46:01;9.07;;;4.70;;
37097;SDS011;63608;49.572;12.348;2023-05-24T10:48:07;6.47;;;4.87;;
37097;SDS011;63608;49.572;12.348;2023-05-24T10:50:25;7.80;;;4.80;;
37097;SDS011;63608;49.572;12.348;2023-05-24T10:52:35;9.10;;;4.67;;
37097;SDS011;63608;49.572;12.348;2023-05-24T10:54:39;11.87;;;5.03;;
37097;SDS011;63608;49.572;12.348;2023-05-24T10:56:43;8.30;;;4.50;;
37097;SDS011;63608;49.572;12.348;2023-05-24T10:58:58;6.90;;;5.10;;
37097;SDS011;63608;49.572;12.348;2023-05-24T11:01:08;8.90;;;4.60;;
37097;SDS011;63608;49.572;12.348;2023-05-24T11:03:12;6.63;;;4.10;;
37097;SDS011;63608;49.572;12.348;2023-05-24T11:05:22;9.23;;;4.07;;
37097;SDS011;63608;49.572;12.348;2023-05-24T11:07:25;12.17;;;4.87;;
37097;SDS011;63608;49.572;12.348;2023-05-24T11:09:29;9.93;;;4.53;;
37097;SDS011;63608;49.572;12.348;2023-05-24T11:11:32;9.37;;;4.20;;
37097;SDS011;63608;49.572;12.348;2023-05-24T11:13:35;6.27;;;4.03;;
37097;SDS011;63608;49.572;12.348;2023-05-24T11:15:37;9.50;;;4.60;;
37097;SDS011;63608;49.572;12.348;2023-05-24T11:20:16;7.80;;;4.20;;
37097;SDS011;63608;49.572;12.348;2023-05-24T11:22:21;10.53;;;4.10;;
37097;SDS011;63608;49.572;12.348;2023-05-24T11:24:26;9.57;;;4.57;;
37097;SDS011;63608;49.572;12.348;2023-05-24T11:26:30;11.20;;;4.07;;
37097;SDS011;63608;49.572;12.348;2023-05-24T11:28:35;10.40;;;4.10;;
37097;SDS011;63608;49.572;12.348;2023-05-24T11:30:42;7.17;;;4.30;;
37097;SDS011;63608;49.572;12.348;2023-05-24T11:32:46;12.30;;;4.40;;
37097;SDS011;63608;49.572;12.348;2023-05-24T11:34:51;19.67;;;4.00;;
37097;SDS011;63608;49.572;12.348;2023-05-24T11:36:55;5.87;;;4.10;;
37097;SDS011;63608;49.572;12.348;2023-05-24T11:38:58;6.10;;;3.83;;
37097;SDS011;63608;49.572;12.348;2023-05-24T11:41:01;6.77;;;4.23;;
37097;SDS011;63608;49.572;12.348;2023-05-24T11:43:06;5.13;;;3.70;;
37097;SDS011;63608;49.572;12.348;2023-05-24T11:45:09;7.40;;;3.93;;
37097;SDS011;63608;49.572;12.348;2023-05-24T11:47:13;8.30;;;4.30;;
37097;SDS011;63608;49.572;12.348;2023-05-24T11:49:15;6.07;;;4.00;;
37097;SDS011;63608;49.572;12.348;2023-05-24T11:51:18;7.50;;;4.67;;
37097;SDS011;63608;49.572;12.348;2023-05-24T11:53:21;8.70;;;4.17;;
37097;SDS011;63608;49.572;12.348;2023-05-24T11:55:24;6.73;;;4.07;;
37097;SDS011;63608;49.572;12.348;2023-05-24T11:57:28;8.70;;;4.13;;
37097;SDS011;63608;49.572;12.348;2023-05-24T11:59:32;11.50;;;4.30;;
37097;SDS011;63608;49.572;12.348;2023-05-24T12:01:36;7.13;;;3.80;;
37097;SDS011;63608;49.572;12.348;2023-05-24T12:03:41;9.87;;;4.43;;
37097;SDS011;63608;49.572;12.348;2023-05-24T12:05:45;10.00;;;4.13;;
37097;SDS011;63608;49.572;12.348;2023-05-24T12:07:58;11.33;;;4.87;;
37097;SDS011;63608;49.572;12.348;2023-05-24T12:10:04;9.10;;;4.40;;
37097;SDS011;63608;49.572;12.348;2023-05-24T12:12:08;6.90;;;4.10;;
37097;SDS011;63608;49.572;12.348;2023-05-24T12:14:12;9.07;;;4.37;;
37097;SDS011;63608;49.572;12.348;2023-05-24T12:16:16;8.30;;;4.20;;